Time;durP1;ratioP1;P1;durP2;ratioP2;P2;SDS_P1;SDS_P2;PMS_P1;PMS_P2;Temp;Humidity;BMP_temperature;BMP_pressure;BME280_temperature;BME280_humidity;BME280_pressure;Samples;Min_cycle;Max_cycle;Signal;HPM_P1;HPM_P2
2021/08/12 00:01:26;;;;;;;14.23;3.10;;;13.60;86.70;;;;;;5015378;28;20056;-73
2021/08/12 00:03:54;;;;;;;10.23;2.40;;;13.50;86.80;;;;;;5030654;28;20391;-73
2021/08/12 00:06:21;;;;;;;10.02;2.28;;;13.40;87.00;;;;;;5032336;28;20060;-73
2021/08/12 00:08:49;;;;;;;12.50;2.35;;;13.30;87.10;;;;;;5032348;28;20041;-73
2021/08/12 00:11:17;;;;;;;9.85;2.10;;;13.30;87.20;;;;;;5033182;28;20045;-73
2021/08/12 00:13:44;;;;;;;9.02;2.13;;;13.30;87.20;;;;;;5032178;28;20057;-73
2021/08/12 00:16:13;;;;;;;15.85;2.50;;;13.30;87.40;;;;;;5030971;28;20390;-72
2021/08/12 00:18:42;;;;;;;12.02;2.80;;;13.20;87.60;;;;;;5032771;28;20050;-73
2021/08/12 00:21:10;;;;;;;11.95;2.33;;;13.20;87.60;;;;;;5032506;28;20041;-72
2021/08/12 00:23:37;;;;;;;10.00;2.40;;;13.10;87.70;;;;;;5032098;28;20049;-72
2021/08/12 00:26:05;;;;;;;17.30;2.85;;;13.10;87.80;;;;;;5032237;28;20046;-72
2021/08/12 00:28:32;;;;;;;16.00;2.50;;;13.00;87.90;;;;;;5030586;28;20518;-72
2021/08/12 00:31:00;;;;;;;18.75;3.00;;;13.00;87.80;;;;;;5032018;28;20052;-71
2021/08/12 00:33:28;;;;;;;10.68;2.28;;;13.10;87.80;;;;;;5032208;28;20517;-72
2021/08/12 00:35:56;;;;;;;8.60;2.40;;;13.00;87.70;;;;;;5031505;28;20488;-72
2021/08/12 00:38:24;;;;;;;11.13;2.40;;;12.90;87.80;;;;;;5032327;28;20498;-72
2021/08/12 00:40:54;;;;;;;12.57;2.67;;;12.90;87.80;;;;;;5031113;28;20041;-72
2021/08/12 00:43:24;;;;;;;13.90;2.65;;;12.90;87.70;;;;;;5030800;28;20392;-73
2021/08/12 00:45:51;;;;;;;17.92;2.70;;;12.90;87.70;;;;;;5030271;28;20053;-72
2021/08/12 00:48:19;;;;;;;17.10;2.80;;;12.80;87.70;;;;;;5046832;28;20049;-73
2021/08/12 00:50:47;;;;;;;16.52;2.40;;;12.80;87.80;;;;;;5050587;28;20040;-73
2021/08/12 00:53:15;;;;;;;12.88;3.38;;;12.80;88.00;;;;;;5051166;28;20041;-73
2021/08/12 00:55:47;;;;;;;13.63;2.53;;;12.70;88.00;;;;;;5050677;28;20068;-72
2021/08/12 00:58:17;;;;;;;15.65;2.88;;;12.60;88.10;;;;;;5037466;28;20049;-73
2021/08/12 01:00:48;;;;;;;12.52;2.70;;;12.60;88.10;;;;;;5031644;28;20064;-73
2021/08/12 01:03:17;;;;;;;14.82;2.38;;;12.50;88.30;;;;;;5030913;28;20410;-73
2021/08/12 01:05:56;;;;;;;13.65;2.70;;;12.50;88.40;;;;;;5032066;28;20045;-73
2021/08/12 01:08:35;;;;;;;18.20;2.65;;;12.40;88.50;;;;;;5030534;28;20049;-73
2021/08/12 01:11:16;;;;;;;14.77;2.83;;;12.30;88.50;;;;;;5030747;28;20495;-73
2021/08/12 01:14:05;;;;;;;13.30;2.95;;;12.20;88.70;;;;;;5029980;28;20197;-72
2021/08/12 01:16:42;;;;;;;16.25;2.72;;;12.10;88.90;;;;;;5030711;28;20050;-73
2021/08/12 01:19:35;;;;;;;21.35;2.97;;;12.00;89.20;;;;;;5030934;28;20053;-73
2021/08/12 01:22:05;;;;;;;26.23;3.92;;;11.90;89.30;;;;;;5030552;28;20415;-73
2021/08/12 01:24:38;;;;;;;13.95;3.08;;;11.80;89.60;;;;;;5030709;28;20054;-73
2021/08/12 01:27:10;;;;;;;15.70;3.47;;;11.80;89.80;;;;;;5030626;28;20056;-73
2021/08/12 01:30:02;;;;;;;28.58;4.38;;;11.60;90.00;;;;;;5031705;28;20471;-72
2021/08/12 01:32:43;;;;;;;11.85;3.33;;;11.50;90.30;;;;;;5030362;28;20072;-73
2021/08/12 01:35:14;;;;;;;16.27;3.50;;;11.40;90.60;;;;;;5030452;28;20045;-73
2021/08/12 01:37:48;;;;;;;18.48;3.10;;;11.40;90.70;;;;;;5030396;28;20042;-73
2021/08/12 01:40:18;;;;;;;19.67;3.28;;;11.30;90.90;;;;;;5031873;28;20049;-73
2021/08/12 01:42:49;;;;;;;16.65;3.08;;;11.30;91.00;;;;;;5030214;28;20045;-73
2021/08/12 01:45:19;;;;;;;13.05;3.50;;;11.30;91.10;;;;;;5013696;28;20049;-73
2021/08/12 01:47:49;;;;;;;19.85;4.25;;;11.30;91.00;;;;;;5031898;28;20053;-73
2021/08/12 01:50:19;;;;;;;17.52;4.10;;;11.20;91.30;;;;;;5033705;28;20088;-73
2021/08/12 01:52:49;;;;;;;20.90;4.47;;;11.20;91.40;;;;;;5033762;28;20049;-73
2021/08/12 01:55:28;;;;;;;18.42;4.78;;;11.10;91.40;;;;;;5033938;28;20502;-73
2021/08/12 01:57:59;;;;;;;17.85;3.95;;;11.00;91.50;;;;;;5033540;28;20045;-73
2021/08/12 02:00:30;;;;;;;16.77;3.33;;;11.10;91.80;;;;;;5033555;28;20045;-73
2021/08/12 02:03:05;;;;;;;17.48;4.05;;;11.10;91.90;;;;;;5033691;28;20045;-73
2021/08/12 02:05:34;;;;;;;22.08;3.95;;;11.20;91.90;;;;;;5033038;28;20058;-73
2021/08/12 02:08:02;;;;;;;24.75;4.30;;;11.10;92.10;;;;;;5034570;28;20056;-73
2021/08/12 02:10:30;;;;;;;15.23;3.60;;;11.30;92.20;;;;;;5017101;28;20052;-73
2021/08/12 02:13:01;;;;;;;11.23;3.22;;;11.30;92.20;;;;;;5033224;28;20073;-73
2021/08/12 02:15:29;;;;;;;20.45;2.92;;;11.30;92.10;;;;;;5034813;28;20508;-73
2021/08/12 02:17:57;;;;;;;15.73;3.03;;;11.40;92.00;;;;;;5034489;28;20046;-73
2021/08/12 02:20:25;;;;;;;15.00;3.17;;;11.40;91.90;;;;;;5032859;28;20053;-71
2021/08/12 02:23:01;;;;;;;18.73;3.22;;;11.30;91.90;;;;;;5033041;28;20056;-71
2021/08/12 02:25:40;;;;;;;18.05;3.33;;;11.40;92.00;;;;;;5033487;28;20050;-72
2021/08/12 02:28:09;;;;;;;20.35;3.58;;;11.40;91.90;;;;;;5033313;28;20052;-72
2021/08/12 02:30:40;;;;;;;24.30;3.20;;;11.30;91.70;;;;;;5016718;28;20052;-72
2021/08/12 02:33:16;;;;;;;15.55;3.30;;;11.30;91.80;;;;;;5032975;28;20045;-71
2021/08/12 02:35:44;;;;;;;19.40;3.42;;;11.30;91.90;;;;;;5016778;28;20415;-71
2021/08/12 02:38:14;;;;;;;15.23;3.15;;;11.30;92.00;;;;;;5033163;28;20041;-71
2021/08/12 02:40:46;;;;;;;20.58;3.13;;;11.30;92.00;;;;;;5017582;28;20379;-71
2021/08/12 02:43:16;;;;;;;14.18;3.45;;;11.30;91.90;;;;;;5032808;28;20112;-71
2021/08/12 02:45:44;;;;;;;20.40;3.00;;;11.30;91.90;;;;;;5016629;28;20049;-72
2021/08/12 02:48:13;;;;;;;16.23;3.05;;;11.30;92.00;;;;;;5016717;28;20056;-71
2021/08/12 02:50:45;;;;;;;22.48;3.22;;;11.30;91.80;;;;;;5033465;28;20045;-71
2021/08/12 02:53:13;;;;;;;20.10;3.08;;;11.20;91.80;;;;;;5033319;28;20122;-72
2021/08/12 02:55:41;;;;;;;14.77;3.03;;;11.20;91.90;;;;;;5033737;28;20068;-72
2021/08/12 02:58:10;;;;;;;12.95;2.70;;;11.20;91.80;;;;;;5032529;28;20057;-72
2021/08/12 03:00:39;;;;;;;12.90;2.78;;;11.20;91.90;;;;;;5032257;28;20514;-72
2021/08/12 03:03:08;;;;;;;15.18;2.97;;;11.20;91.90;;;;;;5032659;28;20503;-72
2021/08/12 03:05:37;;;;;;;18.17;3.22;;;11.10;91.90;;;;;;5033546;28;20394;-72
2021/08/12 03:08:12;;;;;;;11.40;2.78;;;11.10;91.80;;;;;;5032421;28;20045;-72
2021/08/12 03:10:40;;;;;;;19.27;3.58;;;11.00;91.90;;;;;;5032343;28;20053;-72
2021/08/12 03:13:08;;;;;;;14.43;3.20;;;11.00;92.20;;;;;;5032297;28;20454;-72
2021/08/12 03:15:37;;;;;;;20.48;3.33;;;11.00;92.10;;;;;;5032091;28;20037;-72
2021/08/12 03:18:06;;;;;;;18.67;2.92;;;11.00;92.10;;;;;;5032226;28;20045;-72
2021/08/12 03:20:34;;;;;;;17.65;2.85;;;11.00;92.00;;;;;;5033427;28;20073;-72
2021/08/12 03:23:03;;;;;;;12.05;3.10;;;11.00;92.00;;;;;;5032136;28;20053;-73
2021/08/12 03:25:32;;;;;;;17.98;3.55;;;10.90;92.00;;;;;;5031988;28;20052;-72
2021/08/12 03:28:00;;;;;;;20.08;3.78;;;10.90;91.90;;;;;;5033012;28;20050;-73
2021/08/12 03:30:27;;;;;;;20.13;3.72;;;10.80;91.90;;;;;;5032203;28;20050;-72
2021/08/12 03:32:55;;;;;;;19.45;3.67;;;10.70;91.90;;;;;;5031973;28;20041;-72
2021/08/12 03:35:26;;;;;;;16.70;4.03;;;10.70;92.10;;;;;;5033314;28;20058;-72
2021/08/12 03:37:54;;;;;;;16.55;3.50;;;10.60;92.20;;;;;;5033232;28;20052;-72
2021/08/12 03:40:22;;;;;;;18.77;4.43;;;10.50;92.40;;;;;;5032992;28;20376;-72
2021/08/12 03:42:50;;;;;;;15.75;4.03;;;10.40;92.40;;;;;;5033031;28;20053;-72
2021/08/12 03:45:18;;;;;;;18.60;4.53;;;10.40;92.50;;;;;;5032955;28;20064;-72
2021/08/12 03:47:46;;;;;;;22.85;4.70;;;10.30;92.50;;;;;;5031533;28;20046;-72
2021/08/12 03:50:16;;;;;;;16.17;4.47;;;10.30;92.50;;;;;;5031607;28;20045;-72
2021/08/12 03:52:44;;;;;;;21.95;4.70;;;10.30;92.70;;;;;;5031532;28;20213;-72
2021/08/12 03:55:12;;;;;;;12.95;4.25;;;10.20;92.80;;;;;;5032563;28;20380;-72
2021/08/12 03:57:44;;;;;;;14.45;4.18;;;10.20;92.90;;;;;;5031842;28;20304;-72
2021/08/12 04:00:14;;;;;;;17.30;4.15;;;10.20;93.00;;;;;;5031420;28;20045;-72
2021/08/12 04:02:47;;;;;;;14.07;4.30;;;10.10;92.80;;;;;;5031298;28;20046;-72
2021/08/12 04:05:15;;;;;;;17.85;4.35;;;10.00;92.90;;;;;;5031292;28;20060;-72
2021/08/12 04:07:42;;;;;;;22.35;3.80;;;10.00;93.00;;;;;;5032682;28;20049;-72
2021/08/12 04:10:11;;;;;;;22.83;4.75;;;10.00;93.00;;;;;;5031676;28;20041;-72
2021/08/12 04:12:38;;;;;;;19.85;4.78;;;10.00;93.20;;;;;;5032341;28;20049;-72
2021/08/12 04:15:06;;;;;;;24.98;4.88;;;9.90;93.30;;;;;;5014975;28;20045;-72
2021/08/12 04:17:34;;;;;;;16.75;4.63;;;9.90;93.20;;;;;;5031259;28;20045;-72
2021/08/12 04:20:03;;;;;;;18.33;4.38;;;9.90;93.20;;;;;;5014723;28;20053;-72
2021/08/12 04:22:31;;;;;;;23.55;5.50;;;9.90;93.30;;;;;;5030903;28;20053;-72
2021/08/12 04:24:58;;;;;;;20.63;5.05;;;9.90;93.20;;;;;;5030917;28;20045;-72
2021/08/12 04:27:26;;;;;;;22.95;5.07;;;9.80;93.10;;;;;;5032579;28;20060;-72
2021/08/12 04:29:53;;;;;;;22.88;4.85;;;9.80;93.10;;;;;;5032102;28;20056;-72
2021/08/12 04:32:21;;;;;;;22.13;5.75;;;9.80;93.10;;;;;;5032689;28;20041;-72
2021/08/12 04:34:49;;;;;;;16.77;4.72;;;9.70;93.20;;;;;;5030859;28;20060;-72
2021/08/12 04:37:18;;;;;;;19.38;4.60;;;9.70;93.20;;;;;;5030648;28;20045;-71
2021/08/12 04:39:45;;;;;;;18.05;4.97;;;9.70;93.20;;;;;;5030764;28;20053;-72
2021/08/12 04:42:13;;;;;;;18.77;4.95;;;9.60;93.40;;;;;;5032181;28;20045;-72
2021/08/12 04:44:41;;;;;;;26.23;5.60;;;9.60;93.50;;;;;;5030831;28;20049;-72
2021/08/12 04:47:08;;;;;;;26.20;5.15;;;9.60;93.50;;;;;;5030816;28;20064;-73
2021/08/12 04:49:37;;;;;;;24.65;5.47;;;9.60;93.50;;;;;;5014664;28;20053;-72
2021/08/12 04:52:05;;;;;;;22.45;5.78;;;9.50;93.40;;;;;;5031830;28;20038;-72
2021/08/12 04:54:33;;;;;;;21.60;5.35;;;9.50;93.60;;;;;;5030872;28;20451;-72
2021/08/12 04:57:00;;;;;;;17.52;5.57;;;9.50;93.80;;;;;;5031265;28;20406;-72
2021/08/12 04:59:28;;;;;;;28.10;6.57;;;9.50;93.80;;;;;;5031133;28;20053;-72
2021/08/12 05:01:56;;;;;;;21.40;5.50;;;9.50;93.80;;;;;;5030767;28;20053;-72
2021/08/12 05:04:24;;;;;;;24.42;5.47;;;9.50;93.90;;;;;;5030749;28;20057;-72
2021/08/12 05:06:51;;;;;;;24.25;5.03;;;9.60;93.90;;;;;;5050978;28;20041;-72
2021/08/12 05:09:19;;;;;;;20.88;5.32;;;9.60;93.90;;;;;;5023304;28;20053;-72
2021/08/12 05:11:47;;;;;;;33.47;5.35;;;9.60;93.80;;;;;;5031451;28;20041;-73
2021/08/12 05:14:15;;;;;;;27.80;5.55;;;9.60;93.70;;;;;;5031844;28;20049;-72
2021/08/12 05:16:43;;;;;;;23.25;5.75;;;9.60;93.80;;;;;;5030294;28;20518;-72
2021/08/12 05:19:11;;;;;;;21.52;6.50;;;9.50;93.90;;;;;;5030679;28;20052;-72
2021/08/12 05:21:38;;;;;;;26.08;6.47;;;9.50;94.00;;;;;;5031853;28;20049;-72
2021/08/12 05:24:06;;;;;;;20.20;6.10;;;9.50;94.10;;;;;;5017800;28;20049;-72
2021/08/12 05:26:34;;;;;;;20.30;6.20;;;9.60;94.20;;;;;;5018225;28;20041;-72
2021/08/12 05:29:02;;;;;;;24.50;6.25;;;9.60;94.40;;;;;;5034358;28;20398;-72
2021/08/12 05:31:31;;;;;;;18.88;6.40;;;9.70;94.40;;;;;;5034153;28;20052;-72
2021/08/12 05:34:00;;;;;;;22.48;6.18;;;9.70;94.40;;;;;;5034160;28;20064;-72
2021/08/12 05:36:27;;;;;;;21.40;6.97;;;9.70;94.40;;;;;;5017656;28;20050;-72
2021/08/12 05:38:57;;;;;;;14.95;6.40;;;9.80;94.50;;;;;;5033923;28;20049;-72
2021/08/12 05:41:25;;;;;;;24.38;6.32;;;9.80;94.40;;;;;;5035122;28;20056;-72
2021/08/12 05:43:53;;;;;;;27.35;5.97;;;9.80;94.40;;;;;;5034067;28;20042;-72
2021/08/12 05:46:20;;;;;;;20.17;5.82;;;9.90;94.30;;;;;;5034346;28;20065;-72
2021/08/12 05:48:48;;;;;;;35.42;6.25;;;9.90;94.30;;;;;;5033754;28;20042;-72
2021/08/12 05:51:16;;;;;;;20.25;5.22;;;9.90;94.30;;;;;;5035397;28;20049;-72
2021/08/12 05:53:43;;;;;;;29.73;5.80;;;10.00;94.30;;;;;;5033822;28;20052;-72
2021/08/12 05:56:11;;;;;;;24.77;5.35;;;10.10;94.30;;;;;;5017412;28;20053;-73
2021/08/12 05:58:39;;;;;;;23.88;5.07;;;10.20;94.30;;;;;;5033842;28;20041;-73
2021/08/12 06:01:07;;;;;;;19.05;4.78;;;10.20;94.30;;;;;;5033484;28;20068;-72
2021/08/12 06:03:35;;;;;;;15.40;4.28;;;10.30;94.20;;;;;;5033477;28;20411;-72
2021/08/12 06:06:03;;;;;;;19.60;4.75;;;10.30;94.10;;;;;;5033539;28;20045;-72
2021/08/12 06:08:33;;;;;;;25.42;4.88;;;10.40;94.00;;;;;;5033695;28;20061;-72
2021/08/12 06:11:02;;;;;;;16.83;3.72;;;10.50;93.90;;;;;;5034578;28;20049;-72
2021/08/12 06:13:30;;;;;;;18.33;4.35;;;10.60;93.90;;;;;;5033256;28;20144;-72
2021/08/12 06:16:01;;;;;;;16.15;4.05;;;10.60;93.80;;;;;;5033127;28;20062;-72
2021/08/12 06:18:31;;;;;;;18.02;4.40;;;10.70;93.70;;;;;;5016902;28;20056;-72
2021/08/12 06:20:59;;;;;;;16.17;3.80;;;10.70;93.60;;;;;;5033522;28;20062;-72
2021/08/12 06:23:26;;;;;;;23.48;4.35;;;10.80;93.50;;;;;;5033836;28;20069;-72
2021/08/12 06:25:55;;;;;;;17.98;4.13;;;10.80;93.50;;;;;;5034464;28;20060;-73
2021/08/12 06:28:23;;;;;;;15.65;3.83;;;10.90;93.40;;;;;;5016864;28;20048;-72
2021/08/12 06:30:52;;;;;;;16.02;3.58;;;11.00;93.30;;;;;;5033245;28;20050;-72
2021/08/12 06:33:20;;;;;;;13.93;3.50;;;11.10;93.20;;;;;;5032139;28;20041;-72
2021/08/12 06:35:48;;;;;;;21.55;3.95;;;11.10;93.10;;;;;;5034247;28;20403;-72
2021/08/12 06:38:17;;;;;;;15.82;3.55;;;11.20;93.00;;;;;;5032946;28;20045;-72
2021/08/12 06:40:44;;;;;;;16.17;3.20;;;11.30;92.90;;;;;;5033084;28;20049;-72
2021/08/12 06:43:13;;;;;;;13.13;3.40;;;11.30;92.90;;;;;;5033040;28;20542;-73
2021/08/12 06:46:07;;;;;;;20.67;2.83;;;11.40;92.70;;;;;;5033667;28;20176;-73
2021/08/12 06:48:39;;;;;;;14.10;3.30;;;11.50;92.50;;;;;;5033074;28;20050;-73
2021/08/12 06:51:27;;;;;;;17.42;3.22;;;11.50;92.40;;;;;;5032878;28;20478;-73
2021/08/12 06:53:55;;;;;;;18.42;3.13;;;11.60;92.30;;;;;;5032594;28;20056;-73
2021/08/12 06:56:22;;;;;;;12.25;2.65;;;11.60;92.10;;;;;;5032847;28;20045;-73
2021/08/12 06:58:50;;;;;;;16.15;3.15;;;11.70;91.80;;;;;;5032673;28;20050;-73
2021/08/12 07:01:18;;;;;;;16.50;3.40;;;11.80;91.50;;;;;;5016029;28;20056;-73
2021/08/12 07:03:46;;;;;;;17.50;3.45;;;11.80;91.30;;;;;;5032470;28;20068;-74
2021/08/12 07:06:14;;;;;;;20.25;2.83;;;11.80;91.10;;;;;;5032360;28;20061;-73
2021/08/12 07:08:43;;;;;;;15.85;3.47;;;11.90;90.90;;;;;;5032479;28;20064;-73
2021/08/12 07:11:11;;;;;;;17.63;2.97;;;12.00;90.80;;;;;;5032278;28;20045;-73
2021/08/12 07:13:42;;;;;;;12.38;2.80;;;12.10;90.60;;;;;;5032291;28;20050;-73
2021/08/12 07:16:14;;;;;;;16.95;3.20;;;12.20;90.40;;;;;;5032153;28;20060;-73
2021/08/12 07:18:45;;;;;;;18.55;3.45;;;12.20;90.20;;;;;;5032317;28;20060;-71
2021/08/12 07:21:19;;;;;;;14.90;3.50;;;12.30;90.10;;;;;;5015579;28;20518;-71
2021/08/12 07:23:49;;;;;;;13.60;3.00;;;12.30;89.90;;;;;;5031889;28;20064;-71
2021/08/12 07:26:18;;;;;;;15.65;3.10;;;12.40;89.90;;;;;;5032200;28;20416;-72
2021/08/12 07:28:47;;;;;;;12.20;3.22;;;12.50;89.70;;;;;;5031685;28;20483;-72
2021/08/12 07:31:16;;;;;;;14.15;2.63;;;12.60;89.60;;;;;;5032999;28;20053;-71
2021/08/12 07:33:45;;;;;;;16.55;3.10;;;12.70;89.30;;;;;;5015474;28;20538;-71
2021/08/12 07:36:13;;;;;;;13.82;3.15;;;12.70;89.20;;;;;;5031711;28;20048;-72
2021/08/12 07:38:43;;;;;;;17.25;2.75;;;12.80;89.20;;;;;;5031699;28;20338;-72
2021/08/12 07:41:11;;;;;;;17.90;3.00;;;12.80;89.10;;;;;;5032120;28;20502;-72
2021/08/12 07:43:40;;;;;;;9.18;2.50;;;12.90;88.80;;;;;;5031851;28;20037;-72
2021/08/12 07:46:07;;;;;;;14.30;2.92;;;13.00;88.70;;;;;;5015326;28;20049;-72
2021/08/12 07:48:36;;;;;;;13.35;2.50;;;13.00;88.60;;;;;;5032736;28;20066;-72
2021/08/12 07:51:04;;;;;;;14.35;2.15;;;13.10;88.50;;;;;;5032737;28;20082;-72
2021/08/12 07:53:31;;;;;;;12.35;2.15;;;13.30;88.30;;;;;;5034074;28;20060;-71
2021/08/12 07:55:59;;;;;;;14.27;2.20;;;13.30;88.00;;;;;;5050702;28;20056;-72
2021/08/12 07:58:27;;;;;;;10.88;2.05;;;13.40;87.70;;;;;;5052672;28;20049;-72
2021/08/12 08:00:55;;;;;;;10.40;1.90;;;13.50;87.30;;;;;;5052397;28;20569;-72
2021/08/12 08:03:23;;;;;;;10.50;2.72;;;13.60;86.60;;;;;;5052421;28;20055;-73
2021/08/12 08:05:51;;;;;;;12.68;2.28;;;13.60;86.60;;;;;;5052600;28;20173;-72
2021/08/12 08:08:18;;;;;;;10.50;1.88;;;13.80;86.60;;;;;;5052521;28;20045;-72
2021/08/12 08:10:46;;;;;;;13.85;2.10;;;13.80;86.00;;;;;;5052449;28;20049;-72
2021/08/12 08:13:16;;;;;;;10.63;2.08;;;13.90;85.10;;;;;;5050708;28;20056;-72
2021/08/12 08:15:44;;;;;;;12.70;2.03;;;13.90;85.30;;;;;;5052205;28;20045;-73
2021/08/12 08:18:12;;;;;;;11.20;2.42;;;14.00;84.90;;;;;;5052047;28;20059;-71
2021/08/12 08:20:40;;;;;;;17.27;2.30;;;14.10;84.60;;;;;;5052444;28;20407;-72
2021/08/12 08:23:09;;;;;;;12.32;2.35;;;14.20;84.40;;;;;;5051930;28;20336;-72
2021/08/12 08:25:37;;;;;;;14.45;2.00;;;14.30;84.40;;;;;;5052066;28;20049;-72
2021/08/12 08:28:06;;;;;;;9.10;1.80;;;14.40;84.00;;;;;;5052132;28;20056;-72
2021/08/12 08:30:35;;;;;;;11.20;2.10;;;14.40;83.00;;;;;;5052126;28;20465;-72
2021/08/12 08:33:04;;;;;;;13.40;2.47;;;14.40;82.90;;;;;;5050872;28;20045;-72
2021/08/12 08:35:34;;;;;;;9.13;1.95;;;14.50;82.80;;;;;;5051793;28;20049;-72
2021/08/12 08:38:02;;;;;;;12.18;1.90;;;14.60;83.10;;;;;;5051050;28;20051;-72
2021/08/12 08:40:31;;;;;;;15.02;2.05;;;14.70;82.40;;;;;;5051970;28;20064;-73
2021/08/12 08:43:01;;;;;;;13.27;2.25;;;14.80;82.20;;;;;;5051705;28;20036;-73
2021/08/12 08:45:30;;;;;;;10.70;1.75;;;14.90;82.10;;;;;;5050767;28;20049;-72
2021/08/12 08:48:01;;;;;;;12.07;1.80;;;15.10;81.80;;;;;;5051167;28;20041;-72
2021/08/12 08:50:32;;;;;;;16.23;2.30;;;15.20;81.00;;;;;;5052505;28;20049;-72
2021/08/12 08:53:00;;;;;;;10.85;1.80;;;15.30;81.00;;;;;;5050745;28;20064;-72
2021/08/12 08:55:28;;;;;;;8.52;2.13;;;15.30;80.40;;;;;;5051881;28;20060;-72
2021/08/12 08:57:58;;;;;;;6.90;1.70;;;15.40;80.10;;;;;;5055722;28;20057;-72
2021/08/12 09:00:26;;;;;;;7.57;1.35;;;15.40;79.90;;;;;;5055007;28;20049;-72
2021/08/12 09:02:55;;;;;;;10.70;1.55;;;15.50;78.90;;;;;;5055943;28;20045;-73
2021/08/12 09:05:23;;;;;;;10.63;1.70;;;15.50;78.00;;;;;;5054324;28;20056;-74
2021/08/12 09:07:51;;;;;;;9.70;1.13;;;15.60;77.70;;;;;;5055750;28;20414;-72
2021/08/12 09:10:20;;;;;;;11.63;1.83;;;15.70;76.80;;;;;;5055558;28;20406;-73
2021/08/12 09:12:48;;;;;;;8.75;1.33;;;15.70;75.60;;;;;;5055407;28;20061;-72
2021/08/12 09:15:23;;;;;;;9.65;1.50;;;15.70;74.80;;;;;;5054183;28;20056;-71
2021/08/12 09:17:53;;;;;;;6.30;1.25;;;15.70;74.80;;;;;;5055524;28;20167;-71
2021/08/12 09:20:24;;;;;;;6.65;1.23;;;15.80;74.70;;;;;;5055197;28;20398;-71
2021/08/12 09:23:02;;;;;;;6.30;1.30;;;15.80;74.20;;;;;;5055622;28;20056;-71
2021/08/12 09:25:42;;;;;;;7.50;1.77;;;16.00;72.40;;;;;;5055181;28;20068;-71
2021/08/12 09:28:15;;;;;;;5.63;0.90;;;16.00;71.60;;;;;;5055312;28;20045;-72
2021/08/12 09:30:59;;;;;;;9.90;1.23;;;16.10;70.70;;;;;;5055432;28;20052;-72
2021/08/12 09:33:46;;;;;;;10.02;1.27;;;16.10;70.90;;;;;;5055156;28;20051;-72
2021/08/12 09:36:28;;;;;;;7.93;1.20;;;16.20;71.40;;;;;;5054106;28;20049;-71
2021/08/12 09:39:16;;;;;;;7.05;1.77;;;16.40;71.70;;;;;;5055120;28;20055;-71
2021/08/12 09:41:51;;;;;;;6.65;1.00;;;16.50;70.30;;;;;;5055351;28;20394;-71
2021/08/12 09:44:31;;;;;;;7.85;1.48;;;16.70;69.90;;;;;;5053732;28;20041;-72
2021/08/12 09:47:01;;;;;;;7.55;1.48;;;16.70;69.60;;;;;;5055192;28;20059;-72
2021/08/12 09:49:38;;;;;;;7.57;1.60;;;16.90;69.70;;;;;;5053758;28;20048;-72
2021/08/12 09:52:31;;;;;;;7.32;1.48;;;17.00;69.00;;;;;;5054907;28;20060;-72
2021/08/12 09:55:04;;;;;;;8.75;1.67;;;17.10;68.80;;;;;;5054746;28;20368;-72
2021/08/12 09:57:33;;;;;;;;;;;17.20;67.10;;;;;;5055124;28;20060;-72
2021/08/12 10:00:01;;;;;;;7.60;2.25;;;17.20;66.70;;;;;;5054594;28;19943;-72
2021/08/12 10:02:38;;;;;;;6.53;1.35;;;17.30;67.20;;;;;;5054872;28;20053;-72
2021/08/12 10:05:09;;;;;;;4.80;1.23;;;17.30;66.80;;;;;;5053469;28;20044;-72
2021/08/12 10:07:50;;;;;;;6.88;1.70;;;17.40;65.60;;;;;;5053475;28;20052;-72
2021/08/12 10:10:27;;;;;;;9.70;1.92;;;17.50;64.30;;;;;;5054509;28;20399;-72
2021/08/12 10:12:58;;;;;;;8.23;1.20;;;17.60;65.00;;;;;;5053273;28;20057;-72
2021/08/12 10:15:31;;;;;;;5.28;1.20;;;17.80;64.50;;;;;;5054765;28;20537;-72
2021/08/12 10:18:01;;;;;;;4.78;1.60;;;18.00;63.70;;;;;;5054431;28;20052;-72
2021/08/12 10:20:32;;;;;;;6.07;1.40;;;18.20;63.00;;;;;;5054763;28;20044;-72
2021/08/12 10:23:03;;;;;;;6.53;1.50;;;18.30;62.30;;;;;;5054448;28;20053;-71
2021/08/12 10:25:34;;;;;;;4.22;1.10;;;18.50;61.70;;;;;;5052875;28;20037;-71
2021/08/12 10:28:06;;;;;;;6.80;1.70;;;18.60;61.20;;;;;;5053083;28;20064;-71
2021/08/12 10:30:35;;;;;;;4.45;1.30;;;18.70;59.10;;;;;;5053162;28;20041;-71
2021/08/12 10:33:06;;;;;;;7.38;1.60;;;18.70;58.60;;;;;;5053044;28;20068;-71
2021/08/12 10:35:35;;;;;;;7.38;1.77;;;18.80;58.90;;;;;;5054196;28;20064;-72
2021/08/12 10:38:04;;;;;;;10.18;2.20;;;18.90;58.10;;;;;;5037013;28;20064;-73
2021/08/12 10:40:36;;;;;;;9.73;1.80;;;18.90;57.90;;;;;;5049953;28;20049;-72
2021/08/12 10:43:05;;;;;;;7.93;1.70;;;19.00;58.50;;;;;;5054060;28;20060;-72
2021/08/12 10:45:33;;;;;;;6.32;1.48;;;19.30;58.40;;;;;;5036336;28;20049;-73
2021/08/12 10:48:01;;;;;;;3.90;1.38;;;19.50;57.40;;;;;;5053522;28;20057;-73
2021/08/12 10:51:06;;;;;;;9.07;1.80;;;19.50;56.90;;;;;;5053916;28;20049;-72
2021/08/12 10:53:34;;;;;;;9.98;1.60;;;19.30;57.30;;;;;;5052206;28;20056;-73
2021/08/12 10:56:07;;;;;;;4.47;1.40;;;19.10;57.30;;;;;;5053562;28;20060;-72
2021/08/12 10:58:36;;;;;;;6.75;1.40;;;19.00;57.70;;;;;;5052004;28;20051;-73
2021/08/12 11:01:12;;;;;;;7.38;1.67;;;19.10;58.60;;;;;;5053714;28;20045;-72
2021/08/12 11:03:43;;;;;;;9.13;1.58;;;19.30;58.70;;;;;;5053712;28;20053;-73
2021/08/12 11:06:20;;;;;;;8.20;1.40;;;19.60;57.70;;;;;;5052296;28;20513;-73
2021/08/12 11:11:30;;;;;;;4.63;1.30;;;20.00;55.20;;;;;;5053312;28;20523;-73
2021/08/12 11:14:10;;;;;;;8.77;1.30;;;20.10;53.70;;;;;;5053463;28;20406;-73
2021/08/12 11:16:40;;;;;;;5.43;1.33;;;20.20;52.40;;;;;;5053182;28;20048;-73
2021/08/12 11:19:10;;;;;;;7.13;1.30;;;20.30;52.30;;;;;;5054225;28;20045;-72
2021/08/12 11:21:42;;;;;;;4.53;1.30;;;20.30;51.70;;;;;;5050140;28;20487;-73
2021/08/12 11:24:34;;;;;;;9.43;1.40;;;20.10;52.00;;;;;;5051574;28;20045;-72
2021/08/12 11:27:03;;;;;;;5.18;1.20;;;20.00;53.00;;;;;;5050714;28;20041;-72
2021/08/12 11:29:34;;;;;;;4.80;1.10;;;20.00;52.60;;;;;;5051778;28;20076;-73
2021/08/12 11:32:15;;;;;;;5.35;1.20;;;20.00;51.90;;;;;;5051779;28;20059;-73
2021/08/12 11:34:50;;;;;;;6.15;1.20;;;20.00;52.70;;;;;;5053070;28;20041;-72
2021/08/12 11:37:29;;;;;;;4.35;1.35;;;20.20;51.30;;;;;;5051697;28;20056;-72
2021/08/12 11:39:56;;;;;;;4.45;1.10;;;20.30;51.00;;;;;;5051536;28;20506;-72
2021/08/12 11:42:26;;;;;;;8.85;1.55;;;20.40;51.40;;;;;;5051752;28;20076;-73
2021/08/12 11:44:59;;;;;;;8.60;1.45;;;20.70;51.80;;;;;;5035304;28;20049;-72
2021/08/12 11:47:27;;;;;;;;;;;20.80;51.10;;;;;;5052135;28;20051;-73
2021/08/12 11:49:56;;;;;;;5.60;1.38;;;21.00;51.30;;;;;;5052264;28;19921;-73
2021/08/12 11:52:36;;;;;;;6.32;1.38;;;21.30;51.00;;;;;;5050795;28;20053;-72
2021/08/12 11:55:11;;;;;;;7.97;1.25;;;21.40;50.10;;;;;;5052659;28;20072;-73
2021/08/12 11:57:54;;;;;;;6.75;1.35;;;21.40;49.50;;;;;;5052572;28;20067;-73
2021/08/12 12:00:24;;;;;;;3.75;1.23;;;21.40;49.00;;;;;;5052049;28;20060;-72
2021/08/12 12:02:54;;;;;;;10.90;1.70;;;21.40;49.10;;;;;;5052484;28;20068;-72
2021/08/12 12:05:27;;;;;;;5.55;1.42;;;21.40;48.90;;;;;;5052069;28;20052;-72
2021/08/12 12:08:08;;;;;;;7.00;1.55;;;21.30;50.10;;;;;;5052575;28;20045;-73
2021/08/12 12:10:41;;;;;;;7.40;1.52;;;21.40;50.20;;;;;;5052260;28;20044;-73
2021/08/12 12:13:12;;;;;;;6.27;1.23;;;21.40;50.50;;;;;;5052367;28;20057;-73
2021/08/12 12:15:47;;;;;;;6.50;0.95;;;21.20;50.60;;;;;;5051177;28;20045;-72
2021/08/12 12:18:29;;;;;;;9.18;1.50;;;21.00;50.70;;;;;;5052364;28;20045;-72
2021/08/12 12:21:07;;;;;;;6.30;1.67;;;21.00;51.10;;;;;;5034252;28;20512;-72
2021/08/12 12:23:36;;;;;;;5.68;1.35;;;21.30;51.50;;;;;;5051824;28;20044;-72
2021/08/12 12:26:05;;;;;;;9.38;1.38;;;21.40;50.90;;;;;;5051799;28;20056;-72
2021/08/12 12:28:40;;;;;;;6.78;1.60;;;21.80;50.70;;;;;;5051123;28;20047;-72
2021/08/12 12:31:19;;;;;;;4.80;1.60;;;22.10;49.90;;;;;;5051571;28;20505;-72
2021/08/12 12:34:01;;;;;;;6.03;1.48;;;22.30;49.60;;;;;;5052150;28;20056;-71
2021/08/12 12:36:30;;;;;;;7.07;1.63;;;22.80;48.60;;;;;;5051529;28;20057;-72
2021/08/12 12:38:58;;;;;;;7.35;1.35;;;22.90;46.70;;;;;;5051944;28;20057;-72
2021/08/12 12:41:26;;;;;;;5.57;1.50;;;22.80;46.80;;;;;;5052052;28;20052;-73
2021/08/12 12:44:11;;;;;;;9.43;1.75;;;22.90;47.20;;;;;;5051829;28;20065;-73
2021/08/12 12:46:40;;;;;;;2.72;1.40;;;22.90;46.10;;;;;;5051739;28;20049;-72
2021/08/12 12:49:29;;;;;;;6.18;1.92;;;22.90;46.00;;;;;;5051822;28;20398;-73
2021/08/12 12:52:08;;;;;;;4.35;1.30;;;23.10;45.50;;;;;;5050457;28;20060;-72
2021/08/12 12:54:37;;;;;;;5.90;1.67;;;23.30;45.00;;;;;;5050835;28;20041;-73
2021/08/12 12:57:05;;;;;;;8.20;1.40;;;23.50;45.20;;;;;;5052103;28;20388;-73
2021/08/12 12:59:32;;;;;;;4.60;1.38;;;23.70;44.20;;;;;;5052138;28;20056;-73
2021/08/12 13:02:01;;;;;;;3.20;1.27;;;23.80;43.20;;;;;;5052000;28;20053;-73